ADDS METAR Data INFO
IDs: Format: Raw Decoded Include TAF

Data at: 0324 UTC 19 Jul 2018

METAR for:KLAL (Lakeland Rgnl, FL, US)
Text:KLAL 190150Z 00000KT 10SM SKC 26/25 A2999
Temperature: 26.0°C ( 79°F)
Dewpoint: 25.0°C ( 77°F) [RH = 94%]
Pressure (altimeter):29.99 inches Hg (1015.7 mb)
Winds:calm
Visibility:10 or more sm (16+ km)
Ceiling:at least 12,000 feet AGL
Clouds:clear skies